Time;durP1;ratioP1;P1;durP2;ratioP2;P2;SDS_P1;SDS_P2;PMS_P1;PMS_P2;Temp;Humidity;BMP_temperature;BMP_pressure;BME280_temperature;BME280_humidity;BME280_pressure;Samples;Min_cycle;Max_cycle;Signal;HPM_P1;HPM_P2
2021/10/16 00:01:26;;;;;;;;;;;24.40;36.50;;;;;;484549;246;1184;-73
2021/10/16 00:03:28;;;;;;;;;;;24.50;36.50;;;;;;484606;246;1165;-74
2021/10/16 00:05:29;;;;;;;;;;;24.40;36.50;;;;;;484587;246;1005;-73
2021/10/16 00:07:32;;;;;;;;;;;24.50;36.50;;;;;;484616;246;1277;-73
2021/10/16 00:09:32;;;;;;;;;;;24.50;36.30;;;;;;484649;246;1404;-73
2021/10/16 00:11:33;;;;;;;;;;;24.50;36.30;;;;;;484597;246;2124;-73
2021/10/16 00:13:35;;;;;;;;;;;24.60;36.20;;;;;;484583;246;974;-73
2021/10/16 00:15:36;;;;;;;;;;;24.60;36.20;;;;;;484626;246;1362;-73
2021/10/16 00:17:37;;;;;;;;;;;24.50;36.10;;;;;;484681;245;1127;-74
2021/10/16 00:19:39;;;;;;;;;;;24.50;36.20;;;;;;484680;246;1212;-73
2021/10/16 00:21:40;;;;;;;;;;;24.40;36.30;;;;;;484640;246;1140;-73
2021/10/16 00:23:41;;;;;;;;;;;24.50;36.20;;;;;;484609;246;938;-73
2021/10/16 00:25:43;;;;;;;;;;;24.50;36.20;;;;;;484546;246;1375;-73
2021/10/16 00:27:44;;;;;;;;;;;24.50;36.40;;;;;;484664;242;1061;-73
2021/10/16 00:29:45;;;;;;;;;;;24.40;36.40;;;;;;484556;246;1111;-73
2021/10/16 00:31:47;;;;;;;;;;;24.50;36.30;;;;;;484578;242;2176;-73
2021/10/16 00:33:48;;;;;;;;;;;24.50;36.30;;;;;;484583;246;949;-73
2021/10/16 00:35:49;;;;;;;;;;;24.40;36.30;;;;;;484567;246;1159;-74
2021/10/16 00:37:51;;;;;;;;;;;24.40;36.40;;;;;;484647;246;1107;-73
2021/10/16 00:39:53;;;;;;;;;;;24.40;36.30;;;;;;484647;246;1118;-73
2021/10/16 00:41:54;;;;;;;;;;;24.40;36.50;;;;;;484522;246;1057;-73
2021/10/16 00:43:55;;;;;;;;;;;24.40;36.50;;;;;;484637;246;957;-73
2021/10/16 00:45:57;;;;;;;;;;;24.40;36.60;;;;;;484575;243;1196;-73
2021/10/16 00:47:58;;;;;;;;;;;24.40;36.60;;;;;;484576;246;1099;-74
2021/10/16 00:49:59;;;;;;;;;;;24.30;36.60;;;;;;484601;246;1043;-73
2021/10/16 00:52:01;;;;;;;;;;;24.30;36.70;;;;;;484484;246;2188;-74
2021/10/16 00:54:03;;;;;;;;;;;24.40;36.60;;;;;;484657;246;988;-73
2021/10/16 00:56:05;;;;;;;;;;;24.40;36.50;;;;;;484601;246;1548;-73
2021/10/16 00:58:05;;;;;;;;;;;24.40;36.50;;;;;;484530;245;1438;-73
2021/10/16 01:00:06;;;;;;;;;;;24.40;36.50;;;;;;484604;246;1081;-73
2021/10/16 01:02:07;;;;;;;;;;;24.40;36.50;;;;;;484547;246;1184;-74
2021/10/16 01:04:09;;;;;;;;;;;24.40;36.50;;;;;;484635;246;937;-73
2021/10/16 01:06:10;;;;;;;;;;;24.40;36.40;;;;;;484609;243;1205;-73
2021/10/16 01:08:11;;;;;;;;;;;24.40;36.50;;;;;;484444;246;1054;-73
2021/10/16 01:10:13;;;;;;;;;;;24.40;36.40;;;;;;484461;246;2172;-73
2021/10/16 01:12:14;;;;;;;;;;;24.40;36.50;;;;;;484620;243;1333;-73
2021/10/16 01:14:15;;;;;;;;;;;24.40;36.50;;;;;;484615;246;1026;-73
2021/10/16 01:16:17;;;;;;;;;;;24.30;36.60;;;;;;484502;246;1205;-73
2021/10/16 01:18:18;;;;;;;;;;;24.40;36.60;;;;;;484603;246;950;-73
2021/10/16 01:20:19;;;;;;;;;;;24.30;36.50;;;;;;484582;246;959;-73
2021/10/16 01:22:21;;;;;;;;;;;24.50;36.40;;;;;;484524;246;1015;-73
2021/10/16 01:24:22;;;;;;;;;;;24.40;36.30;;;;;;484640;246;940;-73
2021/10/16 01:26:23;;;;;;;;;;;24.40;36.40;;;;;;484542;243;1204;-73
2021/10/16 01:28:25;;;;;;;;;;;24.40;36.40;;;;;;484682;246;1095;-73
2021/10/16 01:30:26;;;;;;;;;;;24.40;36.40;;;;;;484649;246;2187;-73
2021/10/16 01:32:27;;;;;;;;;;;24.50;36.40;;;;;;484523;246;1129;-73
2021/10/16 01:34:29;;;;;;;;;;;24.50;36.30;;;;;;484595;246;1110;-74
2021/10/16 01:36:30;;;;;;;;;;;24.40;36.30;;;;;;484555;246;1196;-73
2021/10/16 01:38:31;;;;;;;;;;;24.40;36.40;;;;;;484652;246;988;-73
2021/10/16 01:40:33;;;;;;;;;;;24.50;36.30;;;;;;484627;243;1184;-73
2021/10/16 01:42:35;;;;;;;;;;;24.50;36.30;;;;;;484493;246;1097;-73
2021/10/16 01:44:36;;;;;;;;;;;24.50;36.30;;;;;;484514;246;1617;-73
2021/10/16 01:46:38;;;;;;;;;;;24.50;36.20;;;;;;484481;246;1159;-73
2021/10/16 01:48:39;;;;;;;;;;;24.50;36.10;;;;;;484573;246;1252;-74
2021/10/16 01:50:40;;;;;;;;;;;24.60;36.10;;;;;;484522;246;2195;-73
2021/10/16 01:52:41;;;;;;;;;;;24.60;36.10;;;;;;484511;246;1119;-73
2021/10/16 01:54:42;;;;;;;;;;;24.60;36.10;;;;;;484628;246;966;-73
2021/10/16 01:56:44;;;;;;;;;;;24.50;36.20;;;;;;484571;246;1207;-73
2021/10/16 01:58:45;;;;;;;;;;;24.50;36.10;;;;;;484618;246;945;-73
2021/10/16 02:00:46;;;;;;;;;;;24.50;36.10;;;;;;484563;246;987;-73
2021/10/16 02:02:48;;;;;;;;;;;24.50;36.20;;;;;;484520;246;1109;-73
2021/10/16 02:04:49;;;;;;;;;;;24.50;36.20;;;;;;484560;246;1052;-73
2021/10/16 02:06:50;;;;;;;;;;;24.50;36.10;;;;;;484570;246;1174;-73
2021/10/16 02:08:52;;;;;;;;;;;24.60;36.00;;;;;;484592;246;1029;-74
2021/10/16 02:10:53;;;;;;;;;;;24.60;36.00;;;;;;484604;246;2187;-73
2021/10/16 02:12:54;;;;;;;;;;;24.60;36.00;;;;;;484551;246;963;-73
2021/10/16 02:14:56;;;;;;;;;;;24.50;36.10;;;;;;484617;246;940;-73
2021/10/16 02:16:58;;;;;;;;;;;24.60;36.00;;;;;;484484;246;1137;-73
2021/10/16 02:18:59;;;;;;;;;;;24.60;35.90;;;;;;484590;246;985;-73
2021/10/16 02:21:01;;;;;;;;;;;24.50;36.10;;;;;;484555;246;1087;-73
2021/10/16 02:23:02;;;;;;;;;;;24.50;36.20;;;;;;484594;246;1081;-73
2021/10/16 02:25:03;;;;;;;;;;;24.50;36.20;;;;;;484619;246;1233;-73
2021/10/16 02:27:05;;;;;;;;;;;24.50;36.20;;;;;;484639;246;1119;-73
2021/10/16 02:29:06;;;;;;;;;;;24.50;36.20;;;;;;484617;246;958;-73
2021/10/16 02:31:07;;;;;;;;;;;24.50;36.20;;;;;;484389;246;2187;-73
2021/10/16 02:33:09;;;;;;;;;;;24.50;36.10;;;;;;484611;246;1077;-73
2021/10/16 02:35:10;;;;;;;;;;;24.60;36.10;;;;;;484642;246;1052;-73
2021/10/16 02:37:11;;;;;;;;;;;24.60;36.00;;;;;;484527;246;1053;-73
2021/10/16 02:39:13;;;;;;;;;;;24.50;36.00;;;;;;484610;246;965;-73
2021/10/16 02:41:14;;;;;;;;;;;24.50;36.20;;;;;;484532;246;1037;-73
2021/10/16 02:43:15;;;;;;;;;;;24.50;36.40;;;;;;484647;246;1098;-73
2021/10/16 02:45:18;;;;;;;;;;;24.50;36.20;;;;;;484626;246;912;-73
2021/10/16 02:47:18;;;;;;;;;;;24.60;36.20;;;;;;484568;246;1398;-73
2021/10/16 02:49:20;;;;;;;;;;;24.60;36.20;;;;;;484529;246;943;-73
2021/10/16 02:51:21;;;;;;;;;;;24.50;36.10;;;;;;484498;246;2195;-73
2021/10/16 02:53:22;;;;;;;;;;;24.50;36.20;;;;;;484621;246;999;-73
2021/10/16 02:55:24;;;;;;;;;;;24.60;36.10;;;;;;484721;246;1536;-73
2021/10/16 02:57:25;;;;;;;;;;;24.60;36.20;;;;;;484620;246;1294;-73
2021/10/16 02:59:26;;;;;;;;;;;24.50;36.10;;;;;;484631;246;991;-73
2021/10/16 03:01:28;;;;;;;;;;;24.60;36.10;;;;;;484535;243;1329;-73
2021/10/16 03:03:29;;;;;;;;;;;24.60;36.00;;;;;;484681;246;1159;-74
2021/10/16 03:05:30;;;;;;;;;;;24.50;36.20;;;;;;484626;246;1297;-73
2021/10/16 03:07:32;;;;;;;;;;;24.40;36.20;;;;;;484491;246;1164;-74
2021/10/16 03:09:33;;;;;;;;;;;24.50;36.20;;;;;;484602;246;1001;-73
2021/10/16 03:11:34;;;;;;;;;;;24.60;36.10;;;;;;484552;246;2123;-73
2021/10/16 03:13:36;;;;;;;;;;;24.50;36.10;;;;;;484581;246;963;-73
2021/10/16 03:15:37;;;;;;;;;;;24.40;36.30;;;;;;484519;246;1432;-74
2021/10/16 03:17:38;;;;;;;;;;;24.40;36.30;;;;;;484492;246;1129;-73
2021/10/16 03:19:40;;;;;;;;;;;24.40;36.30;;;;;;484623;246;986;-73
2021/10/16 03:21:41;;;;;;;;;;;24.40;36.40;;;;;;484560;246;1333;-73
2021/10/16 03:23:42;;;;;;;;;;;24.40;36.40;;;;;;484586;246;941;-73
2021/10/16 03:25:44;;;;;;;;;;;24.40;36.30;;;;;;484563;246;1262;-73
2021/10/16 03:27:45;;;;;;;;;;;24.30;36.30;;;;;;484636;246;1092;-73
2021/10/16 03:29:46;;;;;;;;;;;24.30;36.30;;;;;;484579;246;1169;-73
2021/10/16 03:31:48;;;;;;;;;;;24.30;36.30;;;;;;484560;246;2180;-73
2021/10/16 03:33:49;;;;;;;;;;;24.20;36.50;;;;;;484640;246;1186;-73
2021/10/16 03:35:50;;;;;;;;;;;24.30;36.30;;;;;;484608;246;1186;-73
2021/10/16 03:37:52;;;;;;;;;;;24.40;36.30;;;;;;484588;246;1127;-73
2021/10/16 03:39:53;;;;;;;;;;;24.40;36.30;;;;;;484593;246;1130;-73
2021/10/16 03:41:54;;;;;;;;;;;24.40;36.20;;;;;;484490;246;1120;-73
2021/10/16 03:43:56;;;;;;;;;;;24.30;36.30;;;;;;484651;246;1088;-73
2021/10/16 03:45:57;;;;;;;;;;;24.30;36.40;;;;;;484574;243;1130;-73
2021/10/16 03:47:58;;;;;;;;;;;24.30;36.30;;;;;;484599;246;1152;-73
2021/10/16 03:50:00;;;;;;;;;;;24.30;36.40;;;;;;484617;246;960;-73
2021/10/16 03:52:01;;;;;;;;;;;24.30;36.30;;;;;;484579;246;2170;-73
2021/10/16 03:54:02;;;;;;;;;;;24.40;36.30;;;;;;484588;246;965;-73
2021/10/16 03:56:04;;;;;;;;;;;24.30;36.30;;;;;;484551;243;1137;-73
2021/10/16 03:58:05;;;;;;;;;;;24.30;36.20;;;;;;484692;246;1108;-73
2021/10/16 04:00:12;;;;;;;;;;;24.40;36.20;;;;;;484616;246;971;-73
2021/10/16 04:02:08;;;;;;;;;;;24.30;36.30;;;;;;484276;246;1710;-73
2021/10/16 04:04:10;;;;;;;;;;;24.40;36.30;;;;;;484589;246;1182;-73
2021/10/16 04:06:11;;;;;;;;;;;24.30;36.20;;;;;;484405;246;1238;-73
2021/10/16 04:08:12;;;;;;;;;;;24.30;36.40;;;;;;484593;246;1134;-73
2021/10/16 04:10:14;;;;;;;;;;;24.30;36.30;;;;;;484674;246;925;-74
2021/10/16 04:12:15;;;;;;;;;;;24.30;36.20;;;;;;484592;246;2124;-73
2021/10/16 04:14:17;;;;;;;;;;;24.40;36.30;;;;;;484594;246;1007;-73
2021/10/16 04:16:18;;;;;;;;;;;24.30;36.30;;;;;;484580;246;1213;-73
2021/10/16 04:18:19;;;;;;;;;;;24.40;36.20;;;;;;484557;246;1157;-73
2021/10/16 04:20:21;;;;;;;;;;;24.40;36.20;;;;;;484543;246;1133;-73
2021/10/16 04:22:22;;;;;;;;;;;24.40;36.10;;;;;;484500;246;1188;-73
2021/10/16 04:24:24;;;;;;;;;;;24.50;36.10;;;;;;484565;246;993;-73
2021/10/16 04:26:25;;;;;;;;;;;24.30;36.30;;;;;;484507;246;1201;-73
2021/10/16 04:28:27;;;;;;;;;;;24.30;36.30;;;;;;484402;246;1188;-73
2021/10/16 04:30:28;;;;;;;;;;;24.30;36.30;;;;;;484552;246;929;-73
2021/10/16 04:32:29;;;;;;;;;;;24.30;36.20;;;;;;484522;246;2120;-73
2021/10/16 04:34:31;;;;;;;;;;;24.40;36.30;;;;;;484672;246;1148;-73
2021/10/16 04:36:32;;;;;;;;;;;24.30;36.20;;;;;;484339;246;1205;-73
2021/10/16 04:38:33;;;;;;;;;;;24.30;36.20;;;;;;484708;246;1059;-73
2021/10/16 04:40:35;;;;;;;;;;;24.30;36.40;;;;;;484646;246;959;-73
2021/10/16 04:42:36;;;;;;;;;;;24.40;36.20;;;;;;484624;246;1222;-73
2021/10/16 04:44:37;;;;;;;;;;;24.40;36.20;;;;;;484605;246;937;-74
2021/10/16 04:46:39;;;;;;;;;;;24.30;36.20;;;;;;484603;246;1023;-73
2021/10/16 04:48:40;;;;;;;;;;;24.40;36.20;;;;;;484574;246;1138;-73
2021/10/16 04:50:41;;;;;;;;;;;24.40;36.20;;;;;;484562;246;1473;-73
2021/10/16 04:52:42;;;;;;;;;;;24.40;36.20;;;;;;484408;246;2199;-73
2021/10/16 04:54:44;;;;;;;;;;;24.40;36.30;;;;;;484312;246;939;-73
2021/10/16 04:56:45;;;;;;;;;;;24.40;36.30;;;;;;484442;246;1217;-73
2021/10/16 04:58:47;;;;;;;;;;;24.40;36.20;;;;;;484634;246;1128;-73
2021/10/16 05:00:48;;;;;;;;;;;24.40;36.20;;;;;;484657;246;983;-73
2021/10/16 05:02:49;;;;;;;;;;;24.40;36.20;;;;;;484679;246;1170;-73
2021/10/16 05:04:51;;;;;;;;;;;24.40;36.30;;;;;;484671;246;1126;-73
2021/10/16 05:06:52;;;;;;;;;;;24.30;36.30;;;;;;484509;246;1159;-73
2021/10/16 05:08:53;;;;;;;;;;;24.30;36.30;;;;;;484586;246;1198;-73
2021/10/16 05:10:55;;;;;;;;;;;24.20;36.50;;;;;;484438;246;1186;-74
2021/10/16 05:12:56;;;;;;;;;;;24.20;36.60;;;;;;484589;246;2194;-73
2021/10/16 05:14:57;;;;;;;;;;;24.20;36.60;;;;;;484653;246;966;-73
2021/10/16 05:16:59;;;;;;;;;;;24.30;36.50;;;;;;484566;246;1238;-73
2021/10/16 05:19:00;;;;;;;;;;;24.30;36.50;;;;;;484652;246;1069;-73
2021/10/16 05:21:01;;;;;;;;;;;24.30;36.40;;;;;;484554;246;1207;-73
2021/10/16 05:23:03;;;;;;;;;;;24.20;36.50;;;;;;484604;246;1081;-73
2021/10/16 05:25:04;;;;;;;;;;;24.20;36.40;;;;;;484660;246;933;-73
2021/10/16 05:27:06;;;;;;;;;;;24.20;36.50;;;;;;484604;246;1176;-73
2021/10/16 05:29:07;;;;;;;;;;;24.20;36.60;;;;;;484624;246;1000;-73
2021/10/16 05:31:08;;;;;;;;;;;24.20;36.50;;;;;;484497;243;1193;-73
2021/10/16 05:33:10;;;;;;;;;;;24.30;36.50;;;;;;484638;246;2183;-73
2021/10/16 05:35:11;;;;;;;;;;;24.20;36.50;;;;;;484651;246;1159;-73
2021/10/16 05:37:12;;;;;;;;;;;24.30;36.50;;;;;;484465;246;1200;-73
2021/10/16 05:39:14;;;;;;;;;;;24.30;36.30;;;;;;484575;246;941;-73
2021/10/16 05:41:15;;;;;;;;;;;24.40;36.40;;;;;;484611;246;1103;-73
2021/10/16 05:43:16;;;;;;;;;;;24.30;36.30;;;;;;484446;246;1105;-73
2021/10/16 05:45:18;;;;;;;;;;;24.30;36.40;;;;;;484614;246;1044;-73
2021/10/16 05:47:19;;;;;;;;;;;24.30;36.50;;;;;;484484;245;1129;-73
2021/10/16 05:49:20;;;;;;;;;;;24.20;36.60;;;;;;484541;246;1156;-73
2021/10/16 05:51:22;;;;;;;;;;;24.20;36.60;;;;;;484557;246;1283;-73
2021/10/16 05:53:23;;;;;;;;;;;24.20;36.50;;;;;;484549;246;2191;-73
2021/10/16 05:55:24;;;;;;;;;;;24.20;36.50;;;;;;484637;246;1023;-73
2021/10/16 05:57:26;;;;;;;;;;;24.20;36.50;;;;;;484572;246;1109;-74
2021/10/16 05:59:27;;;;;;;;;;;24.30;36.50;;;;;;484601;246;950;-73
2021/10/16 06:01:28;;;;;;;;;;;24.30;36.50;;;;;;484577;246;1236;-73
2021/10/16 06:03:31;;;;;;;;;;;24.20;36.50;;;;;;484623;246;1060;-73
2021/10/16 06:05:31;;;;;;;;;;;24.20;36.60;;;;;;484501;246;1459;-73
2021/10/16 06:07:32;;;;;;;;;;;24.20;36.50;;;;;;484439;246;1123;-73
2021/10/16 06:09:34;;;;;;;;;;;24.30;36.60;;;;;;484614;246;1169;-73
2021/10/16 06:11:35;;;;;;;;;;;24.30;36.50;;;;;;484590;246;1154;-73
2021/10/16 06:13:36;;;;;;;;;;;24.10;36.70;;;;;;484617;246;2116;-73
2021/10/16 06:15:38;;;;;;;;;;;24.10;36.80;;;;;;484618;246;970;-73
2021/10/16 06:17:39;;;;;;;;;;;24.10;36.90;;;;;;484597;246;1046;-73
2021/10/16 06:19:41;;;;;;;;;;;24.10;36.70;;;;;;484583;246;1160;-74
2021/10/16 06:21:42;;;;;;;;;;;24.20;36.70;;;;;;484576;245;1379;-73
2021/10/16 06:23:43;;;;;;;;;;;24.20;36.60;;;;;;484643;246;943;-73
2021/10/16 06:25:44;;;;;;;;;;;24.20;36.50;;;;;;484704;246;950;-73
2021/10/16 06:27:46;;;;;;;;;;;24.30;36.40;;;;;;484692;246;1156;-73
2021/10/16 06:29:47;;;;;;;;;;;24.40;36.40;;;;;;484598;246;1123;-73
2021/10/16 06:31:48;;;;;;;;;;;24.40;36.30;;;;;;484569;246;1219;-73
2021/10/16 06:33:50;;;;;;;;;;;24.30;36.40;;;;;;484618;246;2329;-73
2021/10/16 06:35:51;;;;;;;;;;;24.40;36.40;;;;;;484653;246;1166;-73
2021/10/16 06:37:52;;;;;;;;;;;24.30;36.40;;;;;;484657;246;1081;-73
2021/10/16 06:39:54;;;;;;;;;;;24.30;36.50;;;;;;484631;246;1073;-73
2021/10/16 06:41:55;;;;;;;;;;;24.30;36.40;;;;;;484612;246;1202;-73
2021/10/16 06:43:57;;;;;;;;;;;24.30;36.40;;;;;;484617;246;1131;-73
2021/10/16 06:45:58;;;;;;;;;;;24.40;36.40;;;;;;484489;246;1491;-73
2021/10/16 06:47:59;;;;;;;;;;;24.40;36.40;;;;;;484666;246;1157;-73
2021/10/16 06:50:00;;;;;;;;;;;24.40;36.40;;;;;;484650;246;1200;-73
2021/10/16 06:52:02;;;;;;;;;;;24.40;36.30;;;;;;484615;246;1194;-73
2021/10/16 06:54:03;;;;;;;;;;;24.30;36.50;;;;;;484572;246;2119;-73
2021/10/16 06:56:04;;;;;;;;;;;24.20;36.60;;;;;;484499;246;1209;-73
2021/10/16 06:58:06;;;;;;;;;;;24.30;36.50;;;;;;484705;246;1079;-73
2021/10/16 07:00:07;;;;;;;;;;;24.40;36.40;;;;;;484640;246;980;-73
2021/10/16 07:02:08;;;;;;;;;;;24.50;36.10;;;;;;484570;243;1162;-73
2021/10/16 07:04:10;;;;;;;;;;;24.60;36.10;;;;;;484627;246;1146;-73
2021/10/16 07:06:11;;;;;;;;;;;24.60;36.00;;;;;;484638;246;1133;-74
2021/10/16 07:08:12;;;;;;;;;;;24.60;35.80;;;;;;484654;246;1118;-73
2021/10/16 07:10:14;;;;;;;;;;;24.60;35.90;;;;;;484656;246;946;-73
2021/10/16 07:12:15;;;;;;;;;;;24.60;35.90;;;;;;484634;241;1180;-73
2021/10/16 07:14:16;;;;;;;;;;;24.60;35.80;;;;;;484567;246;2112;-73
2021/10/16 07:16:18;;;;;;;;;;;24.70;35.80;;;;;;484523;246;1220;-73
2021/10/16 07:18:19;;;;;;;;;;;24.60;35.90;;;;;;484587;246;955;-73
2021/10/16 07:20:20;;;;;;;;;;;24.70;35.90;;;;;;484610;246;1144;-73
2021/10/16 07:22:22;;;;;;;;;;;24.60;35.80;;;;;;484650;246;1165;-73
2021/10/16 07:24:23;;;;;;;;;;;24.80;35.70;;;;;;484461;246;969;-73
2021/10/16 07:26:24;;;;;;;;;;;24.80;35.60;;;;;;484528;246;1219;-73
2021/10/16 07:28:26;;;;;;;;;;;24.80;35.70;;;;;;484639;246;948;-73
2021/10/16 07:30:27;;;;;;;;;;;24.60;35.80;;;;;;484627;246;929;-73
2021/10/16 07:32:28;;;;;;;;;;;24.70;35.80;;;;;;484589;246;2188;-73
2021/10/16 07:34:30;;;;;;;;;;;24.70;35.80;;;;;;484535;246;1179;-73
2021/10/16 07:36:34;;;;;;;;;;;24.80;35.70;;;;;;484447;246;1217;-73
2021/10/16 07:38:34;;;;;;;;;;;24.80;35.70;;;;;;484495;246;1341;-73
2021/10/16 07:40:35;;;;;;;;;;;24.70;35.70;;;;;;484605;246;942;-73
2021/10/16 07:42:37;;;;;;;;;;;24.60;35.80;;;;;;484593;246;1062;-73
2021/10/16 07:44:38;;;;;;;;;;;24.70;35.80;;;;;;484674;246;954;-73
2021/10/16 07:46:39;;;;;;;;;;;24.70;35.80;;;;;;484573;246;1191;-73
2021/10/16 07:48:41;;;;;;;;;;;24.70;35.90;;;;;;484593;246;1053;-73
2021/10/16 07:50:42;;;;;;;;;;;24.70;35.80;;;;;;484586;246;1128;-73
2021/10/16 07:52:43;;;;;;;;;;;24.70;35.90;;;;;;484464;246;2175;-73
2021/10/16 07:54:45;;;;;;;;;;;24.80;35.90;;;;;;484520;246;947;-73
2021/10/16 07:56:46;;;;;;;;;;;24.70;35.90;;;;;;484563;246;1190;-74
2021/10/16 07:58:47;;;;;;;;;;;24.80;35.90;;;;;;484612;246;956;-73
2021/10/16 08:00:49;;;;;;;;;;;24.80;35.90;;;;;;484650;246;957;-73
2021/10/16 08:02:50;;;;;;;;;;;24.80;35.80;;;;;;484627;246;1170;-73
2021/10/16 08:04:51;;;;;;;;;;;24.70;36.00;;;;;;484501;246;1160;-73
2021/10/16 08:06:53;;;;;;;;;;;24.80;36.00;;;;;;484299;246;1193;-73
2021/10/16 08:08:54;;;;;;;;;;;24.80;35.90;;;;;;484595;246;1124;-73
2021/10/16 08:10:55;;;;;;;;;;;24.70;36.00;;;;;;484542;246;1254;-73
2021/10/16 08:12:56;;;;;;;;;;;24.80;36.00;;;;;;484586;246;2163;-73
2021/10/16 08:14:58;;;;;;;;;;;24.80;35.80;;;;;;484590;246;953;-73
2021/10/16 08:16:59;;;;;;;;;;;24.80;36.00;;;;;;484533;246;1052;-73
2021/10/16 08:19:00;;;;;;;;;;;24.80;36.10;;;;;;484583;246;1047;-73
2021/10/16 08:21:02;;;;;;;;;;;24.80;36.10;;;;;;484586;246;1309;-73
2021/10/16 08:23:05;;;;;;;;;;;24.80;36.20;;;;;;484614;246;1011;-73
2021/10/16 08:25:05;;;;;;;;;;;24.80;36.20;;;;;;484527;246;1326;-73
2021/10/16 08:27:06;;;;;;;;;;;24.80;36.20;;;;;;484552;246;1032;-73
2021/10/16 08:29:08;;;;;;;;;;;24.80;36.20;;;;;;484648;246;952;-73
2021/10/16 08:31:09;;;;;;;;;;;24.80;36.20;;;;;;484567;246;959;-73
2021/10/16 08:33:10;;;;;;;;;;;24.90;36.20;;;;;;484646;246;2168;-73
2021/10/16 08:35:12;;;;;;;;;;;24.80;36.10;;;;;;484626;246;1193;-73
2021/10/16 08:37:13;;;;;;;;;;;24.80;36.00;;;;;;484511;246;1324;-73
2021/10/16 08:39:14;;;;;;;;;;;24.80;36.00;;;;;;484622;246;945;-73
2021/10/16 08:41:16;;;;;;;;;;;24.80;36.10;;;;;;484444;246;1146;-73
2021/10/16 08:43:17;;;;;;;;;;;24.70;36.30;;;;;;484550;246;1144;-73
2021/10/16 08:45:18;;;;;;;;;;;24.80;36.10;;;;;;484632;246;956;-73
2021/10/16 08:47:19;;;;;;;;;;;24.70;36.30;;;;;;484605;246;1241;-73
2021/10/16 08:49:21;;;;;;;;;;;24.70;36.20;;;;;;484560;246;933;-73
2021/10/16 08:51:22;;;;;;;;;;;24.80;36.10;;;;;;484592;246;1157;-73
2021/10/16 08:53:24;;;;;;;;;;;24.80;36.10;;;;;;484538;246;2129;-73
2021/10/16 08:55:25;;;;;;;;;;;24.80;36.10;;;;;;484538;242;1108;-73
2021/10/16 08:57:26;;;;;;;;;;;24.80;36.10;;;;;;484574;246;1130;-73
2021/10/16 08:59:28;;;;;;;;;;;24.80;36.30;;;;;;484630;246;959;-73
2021/10/16 09:01:29;;;;;;;;;;;24.90;36.10;;;;;;484544;246;1182;-73
2021/10/16 09:03:30;;;;;;;;;;;24.80;36.30;;;;;;484577;246;980;-73
2021/10/16 09:05:32;;;;;;;;;;;24.80;36.40;;;;;;484454;246;1242;-73
2021/10/16 09:07:33;;;;;;;;;;;24.80;36.40;;;;;;484402;246;1211;-73
2021/10/16 09:09:34;;;;;;;;;;;24.80;36.30;;;;;;484559;246;938;-73
2021/10/16 09:11:36;;;;;;;;;;;24.80;36.30;;;;;;484527;246;1182;-73
2021/10/16 09:13:37;;;;;;;;;;;24.80;36.30;;;;;;484609;246;2132;-73
2021/10/16 09:15:38;;;;;;;;;;;24.90;36.40;;;;;;484534;246;1202;-73
2021/10/16 09:17:40;;;;;;;;;;;24.80;36.30;;;;;;484460;246;936;-73
2021/10/16 09:19:41;;;;;;;;;;;24.90;36.20;;;;;;484581;246;1015;-73
2021/10/16 09:21:42;;;;;;;;;;;24.90;36.40;;;;;;484601;246;1277;-73
2021/10/16 09:23:44;;;;;;;;;;;24.90;36.30;;;;;;484558;246;1102;-73
2021/10/16 09:25:45;;;;;;;;;;;24.90;36.30;;;;;;484556;246;955;-73
2021/10/16 09:27:47;;;;;;;;;;;24.80;36.30;;;;;;484523;246;1134;-73
2021/10/16 09:29:48;;;;;;;;;;;24.80;36.40;;;;;;484682;246;931;-73
2021/10/16 09:31:49;;;;;;;;;;;24.90;36.40;;;;;;484656;246;1447;-73
2021/10/16 09:33:50;;;;;;;;;;;24.80;36.40;;;;;;484655;246;2131;-73
2021/10/16 09:35:52;;;;;;;;;;;24.80;36.60;;;;;;484605;246;1108;-73
2021/10/16 09:37:53;;;;;;;;;;;24.80;36.60;;;;;;484674;246;1207;-73
2021/10/16 09:39:54;;;;;;;;;;;24.80;36.60;;;;;;484572;246;1067;-73
2021/10/16 09:41:56;;;;;;;;;;;24.80;36.50;;;;;;484573;246;969;-73
2021/10/16 09:43:57;;;;;;;;;;;24.90;36.50;;;;;;484641;246;1086;-73
2021/10/16 09:45:58;;;;;;;;;;;24.90;36.50;;;;;;484627;246;996;-73
2021/10/16 09:48:00;;;;;;;;;;;24.80;36.50;;;;;;484599;246;1165;-74
2021/10/16 09:50:03;;;;;;;;;;;24.80;36.60;;;;;;484674;246;945;-73
2021/10/16 09:52:03;;;;;;;;;;;24.80;36.50;;;;;;484546;245;1442;-74
2021/10/16 09:54:04;;;;;;;;;;;24.90;36.50;;;;;;484605;246;2179;-73
2021/10/16 09:56:05;;;;;;;;;;;24.90;36.60;;;;;;484607;246;1152;-73
2021/10/16 09:58:07;;;;;;;;;;;24.90;36.50;;;;;;484663;246;1137;-73
2021/10/16 10:00:08;;;;;;;;;;;24.90;36.40;;;;;;484697;246;1060;-73
2021/10/16 10:02:09;;;;;;;;;;;24.90;36.50;;;;;;484584;246;1187;-74
2021/10/16 10:04:11;;;;;;;;;;;24.90;36.40;;;;;;484611;246;955;-73
2021/10/16 10:06:12;;;;;;;;;;;24.90;36.50;;;;;;484632;246;1296;-73
2021/10/16 10:08:13;;;;;;;;;;;25.00;36.40;;;;;;484630;246;1094;-73
2021/10/16 10:10:15;;;;;;;;;;;25.00;36.30;;;;;;484697;246;969;-73
2021/10/16 10:12:16;;;;;;;;;;;25.10;36.40;;;;;;484509;246;1123;-73
2021/10/16 10:14:19;;;;;;;;;;;25.00;36.40;;;;;;484633;246;2121;-73
2021/10/16 10:16:19;;;;;;;;;;;25.00;36.40;;;;;;484481;246;1452;-73
2021/10/16 10:20:44;;;;;;;;;;;25.10;36.20;;;;;;480763;245;1183;-73
2021/10/16 10:22:45;;;;;;;;;;;25.10;36.20;;;;;;484588;246;1211;-73
2021/10/16 10:24:47;;;;;;;;;;;25.10;36.20;;;;;;484573;246;972;-73
2021/10/16 10:26:48;;;;;;;;;;;25.00;36.40;;;;;;484495;246;1308;-73
2021/10/16 10:28:49;;;;;;;;;;;25.10;36.50;;;;;;484516;246;950;-73
2021/10/16 10:30:51;;;;;;;;;;;24.90;36.50;;;;;;484589;246;940;-73
2021/10/16 10:32:52;;;;;;;;;;;24.90;36.60;;;;;;484609;242;1075;-73
2021/10/16 10:34:53;;;;;;;;;;;24.90;36.60;;;;;;484614;246;2183;-73
2021/10/16 10:36:55;;;;;;;;;;;24.90;36.70;;;;;;484533;242;1259;-73
2021/10/16 10:38:56;;;;;;;;;;;24.90;36.70;;;;;;484573;246;975;-73
2021/10/16 10:40:57;;;;;;;;;;;24.90;36.60;;;;;;484521;246;1212;-73
2021/10/16 10:42:59;;;;;;;;;;;25.00;36.60;;;;;;484585;246;1075;-73
2021/10/16 10:45:01;;;;;;;;;;;25.00;36.60;;;;;;484682;246;951;-73
2021/10/16 10:47:01;;;;;;;;;;;24.90;36.60;;;;;;484508;246;1521;-73
2021/10/16 10:49:03;;;;;;;;;;;25.00;36.60;;;;;;484612;246;981;-73
2021/10/16 10:51:04;;;;;;;;;;;24.90;36.80;;;;;;484600;246;1236;-73
2021/10/16 10:53:07;;;;;;;;;;;24.80;36.80;;;;;;484604;246;939;-73
2021/10/16 10:55:08;;;;;;;;;;;24.80;36.90;;;;;;484407;242;2175;-73
2021/10/16 10:57:08;;;;;;;;;;;24.90;36.80;;;;;;484609;246;1311;-73
2021/10/16 10:59:15;;;;;;;;;;;24.90;36.70;;;;;;484514;246;984;-74
2021/10/16 11:01:15;;;;;;;;;;;25.00;36.50;;;;;;484624;245;1404;-73
2021/10/16 11:03:16;;;;;;;;;;;25.00;36.40;;;;;;484618;246;929;-74
2021/10/16 11:05:18;;;;;;;;;;;25.10;36.40;;;;;;484562;246;957;-73
2021/10/16 11:07:19;;;;;;;;;;;25.10;36.30;;;;;;484568;246;1289;-73
2021/10/16 11:09:20;;;;;;;;;;;25.10;36.20;;;;;;484575;246;980;-73
2021/10/16 11:11:22;;;;;;;;;;;25.10;36.30;;;;;;484518;246;1159;-73
2021/10/16 11:13:23;;;;;;;;;;;25.10;36.30;;;;;;484519;246;1064;-73
2021/10/16 11:15:25;;;;;;;;;;;25.10;36.30;;;;;;484587;246;2192;-73
2021/10/16 11:17:26;;;;;;;;;;;25.10;36.30;;;;;;484549;246;1114;-73
2021/10/16 11:19:27;;;;;;;;;;;25.00;36.40;;;;;;484573;246;938;-73
2021/10/16 11:21:28;;;;;;;;;;;24.90;36.50;;;;;;484588;246;1216;-74
2021/10/16 11:23:30;;;;;;;;;;;24.90;36.60;;;;;;484633;246;1150;-73
2021/10/16 11:25:31;;;;;;;;;;;24.90;36.60;;;;;;484555;246;1024;-73
2021/10/16 11:27:32;;;;;;;;;;;25.00;36.50;;;;;;484474;246;1054;-73
2021/10/16 11:29:34;;;;;;;;;;;24.90;36.50;;;;;;484598;246;1013;-73
2021/10/16 11:31:35;;;;;;;;;;;25.00;36.50;;;;;;484548;246;1118;-73
2021/10/16 11:33:38;;;;;;;;;;;25.00;36.40;;;;;;484633;246;975;-73
2021/10/16 11:35:38;;;;;;;;;;;25.00;36.30;;;;;;484410;246;2182;-73
2021/10/16 11:37:39;;;;;;;;;;;25.00;36.40;;;;;;484588;246;1165;-73
2021/10/16 11:39:41;;;;;;;;;;;25.00;36.40;;;;;;484620;246;983;-73
2021/10/16 11:41:42;;;;;;;;;;;25.00;36.40;;;;;;484537;246;1232;-74
2021/10/16 11:43:43;;;;;;;;;;;24.90;36.50;;;;;;484572;246;982;-73
2021/10/16 11:45:45;;;;;;;;;;;24.90;36.50;;;;;;484482;246;1205;-73
2021/10/16 11:47:46;;;;;;;;;;;24.90;36.60;;;;;;484476;246;1200;-73
2021/10/16 11:49:47;;;;;;;;;;;24.90;36.50;;;;;;484478;246;1013;-73
2021/10/16 11:51:49;;;;;;;;;;;24.90;36.50;;;;;;484512;246;1196;-73
2021/10/16 11:53:50;;;;;;;;;;;25.00;36.30;;;;;;484594;246;959;-73
2021/10/16 11:55:51;;;;;;;;;;;25.00;36.20;;;;;;484556;246;2191;-73
2021/10/16 11:57:53;;;;;;;;;;;25.00;36.20;;;;;;484623;246;964;-73
2021/10/16 11:59:54;;;;;;;;;;;25.00;36.20;;;;;;484551;246;1142;-73
2021/10/16 12:01:55;;;;;;;;;;;25.00;36.10;;;;;;484521;246;1142;-73